Aniak Airport
PANI : now visible

Aeroporto :











RITROVATECI SU...

 
LOGIN :

Iscrizione | Disclaimer

   EN    FR    IT 

 









Sommario :    VFR   VFR Marginale   IFR   IFR Intensivo   IFR Molto Intensivo
Visibilità : 
Base nubi : 
>= 8 km
>= 3000ft
5 / 8 km
1000 / 3000 ft
1500m / 5 km
500 / 1000 ft
800 / 1500m
200 / 500 ft
< 800m
< 200 ft
Simboli :   Temporali  Nebbia  Neve Forte  Precipitazioni Forti  Vento > 20 kt






- Altitudine del aeroporto : 88 ft
- Codice IATA : ANI


PANI - Aniak

ULTIMO METAR :
  • 300956Z AUTO VRB05KT 10SM CLR M11/M19 A3014 RMK AO2 SLP212 T11061189 FZRANO

METARs OBSOLETI :
  • 300856Z AUTO 02007KT 10SM CLR M10/M18 A3014 RMK AO2 SLP211 T11001183 410441161 53000 FZRANO
  • 300756Z AUTO 01009G17KT 10SM CLR M09/M18 A3013 RMK AO2 SLP208 T10941183 FZRANO

TAF N/A



MetMap, La meteo Aeronautica in un colpo d'occhio ! - Copyright ORBIFLY Dicembre 2007 - Disclaimer

ORBIFLY MET'MAP TEAM :

Programmazione e sviluppo : Alexandra Zaïnal
Concezione : Baudouin d'Aumeries
Aiuto per la programmazione : Marc-Olivier Méhu
Supporto tecnico e logistico : Manuel Goepfert
Aiuto per la traduzione : Arnaldo La Scala

Contatto : metmap@orbifly.com




FONTI E CREDITI :

   NOAA       Earth
Advisory